Time;durP1;ratioP1;P1;durP2;ratioP2;P2;SDS_P1;SDS_P2;PMS_P1;PMS_P2;Temp;Humidity;BMP_temperature;BMP_pressure;BME280_temperature;BME280_humidity;BME280_pressure;Samples;Min_cycle;Max_cycle;Signal;HPM_P1;HPM_P2
2022/06/22 00:01:19;;;;;;;12.68;9.52;;;12.50;99.90;;;;;;4957809;28;96564;-34
2022/06/22 00:03:52;;;;;;;15.23;10.77;;;12.50;99.90;;;;;;4956118;28;94664;-34
2022/06/22 00:06:29;;;;;;;15.07;11.70;;;12.50;99.90;;;;;;4990198;28;93582;-34
2022/06/22 00:08:55;;;;;;;16.55;11.88;;;12.50;99.90;;;;;;4957030;28;93211;-36
2022/06/22 00:11:21;;;;;;;12.13;10.85;;;12.50;99.90;;;;;;4957037;28;94640;-38
2022/06/22 00:13:52;;;;;;;10.73;9.60;;;12.50;99.90;;;;;;4958017;28;93213;-34
2022/06/22 00:16:24;;;;;;;11.60;10.40;;;12.40;99.90;;;;;;4958390;28;93492;-36
2022/06/22 00:18:52;;;;;;;14.05;10.85;;;12.50;99.90;;;;;;4956966;28;94426;-34
2022/06/22 00:21:34;;;;;;;14.30;11.88;;;12.40;99.90;;;;;;4956501;28;95165;-35
2022/06/22 00:24:22;;;;;;;10.98;9.95;;;12.30;99.90;;;;;;4957428;28;95210;-34
2022/06/22 00:27:07;;;;;;;12.98;11.68;;;12.30;99.90;;;;;;4958011;28;94565;-34
2022/06/22 00:29:35;;;;;;;11.95;10.75;;;12.30;99.90;;;;;;4956835;28;93302;-36
2022/06/22 00:32:14;;;;;;;13.45;10.35;;;12.20;99.90;;;;;;4957396;28;94227;-39
2022/06/22 00:34:40;;;;;;;17.70;11.30;;;12.20;99.90;;;;;;4957063;28;94960;-35
2022/06/22 00:37:29;;;;;;;15.43;9.27;;;12.10;99.90;;;;;;4957802;28;93957;-33
2022/06/22 00:39:59;;;;;;;12.95;11.07;;;12.00;99.90;;;;;;4958643;28;93513;-34
2022/06/22 00:42:25;;;;;;;12.52;11.25;;;11.90;99.90;;;;;;4957567;28;94708;-34
2022/06/22 00:44:59;;;;;;;11.27;9.43;;;11.90;99.90;;;;;;4956324;28;94403;-34
2022/06/22 00:47:53;;;;;;;12.95;11.50;;;11.80;99.90;;;;;;4958007;28;94088;-36
2022/06/22 00:50:41;;;;;;;11.25;9.88;;;11.60;99.90;;;;;;4956935;28;94945;-34
2022/06/22 00:53:23;;;;;;;10.98;9.95;;;11.60;99.90;;;;;;4955093;28;95195;-34
2022/06/22 00:55:54;;;;;;;14.18;10.63;;;11.50;99.90;;;;;;4956996;28;94706;-33
2022/06/22 00:58:45;;;;;;;13.32;9.95;;;11.40;99.90;;;;;;4957604;28;93903;-33
2022/06/22 01:01:21;;;;;;;11.73;10.10;;;11.40;99.90;;;;;;4957233;28;94180;-34
2022/06/22 01:03:56;;;;;;;13.52;11.45;;;11.30;99.90;;;;;;4988983;22;94941;-32
2022/06/22 01:06:27;;;;;;;13.00;10.77;;;11.30;99.90;;;;;;4937295;28;95035;-34
2022/06/22 01:09:27;;;;;;;11.55;10.45;;;11.30;99.90;;;;;;4936636;28;95143;-35
2022/06/22 01:12:17;;;;;;;12.73;11.55;;;11.20;99.90;;;;;;4923428;28;94843;-34
2022/06/22 01:14:45;;;;;;;12.65;11.38;;;11.20;99.90;;;;;;4919019;28;95641;-34
2022/06/22 01:17:58;;;;;;;14.38;12.90;;;11.10;99.90;;;;;;4937866;28;96274;-35
2022/06/22 01:20:48;;;;;;;17.52;12.63;;;11.20;99.90;;;;;;4917217;28;93254;-36
2022/06/22 01:23:39;;;;;;;14.52;12.82;;;11.20;99.90;;;;;;4936688;28;94477;-34
2022/06/22 01:26:23;;;;;;;13.57;12.18;;;11.30;99.90;;;;;;4936930;28;94695;-36
2022/06/22 01:28:59;;;;;;;15.57;12.77;;;11.20;99.90;;;;;;4936529;28;94846;-35
2022/06/22 01:31:25;;;;;;;20.63;12.95;;;11.30;99.90;;;;;;4936866;28;93855;-35
2022/06/22 01:33:52;;;;;;;18.20;13.68;;;11.30;99.90;;;;;;4936748;28;91437;-38
2022/06/22 01:36:22;;;;;;;15.30;13.68;;;11.30;99.90;;;;;;4936117;28;94251;-35
2022/06/22 01:38:48;;;;;;;18.80;13.13;;;11.40;99.90;;;;;;4936428;28;93267;-34
2022/06/22 01:41:20;;;;;;;20.70;12.65;;;11.50;99.90;;;;;;4936374;28;96047;-39
2022/06/22 01:44:06;;;;;;;17.00;13.55;;;11.50;99.90;;;;;;4936327;28;94697;-34
2022/06/22 01:46:54;;;;;;;20.77;13.70;;;11.50;99.90;;;;;;4936826;28;94894;-35
2022/06/22 01:49:31;;;;;;;14.30;12.80;;;11.60;99.90;;;;;;4921858;28;94711;-37
2022/06/22 01:52:07;;;;;;;16.52;13.80;;;11.60;99.90;;;;;;4937567;28;93011;-34
2022/06/22 01:54:39;;;;;;;17.35;14.05;;;11.70;99.90;;;;;;4936546;28;92378;-36
2022/06/22 01:57:23;;;;;;;16.38;13.45;;;11.70;99.90;;;;;;4936635;28;94695;-36
2022/06/22 02:00:09;;;;;;;13.13;11.80;;;11.60;99.90;;;;;;4936175;28;94750;-37
2022/06/22 02:02:53;;;;;;;16.13;13.73;;;11.60;99.90;;;;;;4936164;28;94647;-39
2022/06/22 02:05:32;;;;;;;13.98;11.68;;;11.60;99.90;;;;;;4936961;28;94981;-33
2022/06/22 02:08:04;;;;;;;16.35;12.48;;;11.60;99.90;;;;;;4935508;28;95610;-34
2022/06/22 02:10:40;;;;;;;15.27;13.63;;;11.60;99.90;;;;;;4935927;28;95791;-35
2022/06/22 02:13:29;;;;;;;20.77;14.90;;;11.70;99.90;;;;;;4937474;28;94021;-33
2022/06/22 02:16:06;;;;;;;;;;;11.70;99.90;;;;;;4936814;28;93244;-35
2022/06/22 02:19:10;;;;;;;19.35;14.05;;;11.70;99.90;;;;;;4938589;28;94997;-33
2022/06/22 02:21:45;;;;;;;15.25;12.15;;;11.60;99.90;;;;;;4931231;28;94528;-36
2022/06/22 02:24:25;;;;;;;15.20;10.52;;;11.60;99.90;;;;;;4936845;28;94175;-34
2022/06/22 02:26:58;;;;;;;11.68;10.55;;;11.60;99.90;;;;;;4937069;28;93399;-37
2022/06/22 02:29:41;;;;;;;10.98;9.32;;;11.60;99.90;;;;;;4936104;28;95152;-38
2022/06/22 02:32:09;;;;;;;12.43;8.30;;;11.50;99.90;;;;;;4937161;28;95980;-33
2022/06/22 02:34:37;;;;;;;10.93;8.50;;;11.40;99.90;;;;;;4939678;28;94578;-35
2022/06/22 02:37:07;;;;;;;7.65;6.95;;;11.20;99.90;;;;;;4939710;28;94606;-34
2022/06/22 02:39:38;;;;;;;8.48;7.63;;;11.10;99.90;;;;;;4939889;28;94294;-36
2022/06/22 02:44:49;;;;;;;9.43;8.05;;;11.00;99.90;;;;;;4939851;28;92200;-36
2022/06/22 02:47:31;;;;;;;8.07;7.13;;;10.90;99.90;;;;;;4940602;28;94571;-33
2022/06/22 02:50:26;;;;;;;8.65;7.85;;;10.90;99.90;;;;;;4939570;28;94968;-35
2022/06/22 02:52:56;;;;;;;7.82;7.13;;;10.80;99.90;;;;;;4885764;28;94526;-33
2022/06/22 02:55:27;;;;;;;9.98;8.13;;;10.80;99.90;;;;;;4940501;28;93427;-34
2022/06/22 02:57:52;;;;;;;10.73;7.53;;;10.70;99.90;;;;;;4939869;28;93451;-34
2022/06/22 03:00:28;;;;;;;9.88;8.95;;;10.70;99.90;;;;;;4939636;28;95796;-33
2022/06/22 03:02:59;;;;;;;10.02;7.93;;;10.50;99.90;;;;;;4938959;28;95635;-37
2022/06/22 03:05:25;;;;;;;9.10;8.05;;;10.50;99.90;;;;;;4939278;28;93721;-35
2022/06/22 03:07:55;;;;;;;10.20;9.05;;;10.50;99.90;;;;;;4939739;28;93526;-35
2022/06/22 03:10:31;;;;;;;8.77;7.50;;;10.50;99.90;;;;;;4939306;28;95604;-38
2022/06/22 03:12:58;;;;;;;8.88;6.50;;;10.50;99.90;;;;;;4938872;28;95660;-37
2022/06/22 03:15:27;;;;;;;8.32;7.25;;;10.40;99.90;;;;;;4921457;28;93449;-36
2022/06/22 03:17:56;;;;;;;10.95;8.88;;;10.40;99.90;;;;;;4939527;28;92532;-35
2022/06/22 03:20:26;;;;;;;16.02;10.02;;;10.40;99.90;;;;;;4939183;28;95589;-34
2022/06/22 03:23:07;;;;;;;11.00;9.88;;;10.40;99.90;;;;;;4937773;28;93481;-33
2022/06/22 03:25:42;;;;;;;11.63;8.98;;;10.40;99.90;;;;;;4938913;28;93985;-35
2022/06/22 03:28:13;;;;;;;11.50;9.45;;;10.30;99.90;;;;;;4939375;28;94932;-37
2022/06/22 03:30:59;;;;;;;11.55;8.93;;;10.20;99.90;;;;;;4938579;28;94748;-34
2022/06/22 03:33:39;;;;;;;13.95;9.93;;;10.20;99.90;;;;;;4938924;28;94520;-38
2022/06/22 03:36:17;;;;;;;16.48;10.05;;;10.20;99.90;;;;;;4939301;28;94872;-39
2022/06/22 03:38:49;;;;;;;11.82;10.60;;;10.10;99.90;;;;;;4938273;28;94871;-33
2022/06/22 03:41:19;;;;;;;11.38;9.98;;;10.00;99.90;;;;;;4938303;28;94818;-34
2022/06/22 03:43:54;;;;;;;14.63;11.43;;;9.80;99.90;;;;;;4937855;28;94759;-34
2022/06/22 03:46:42;;;;;;;14.25;12.85;;;9.70;99.90;;;;;;4938566;28;94554;-37
2022/06/22 03:49:14;;;;;;;;;;;9.80;99.90;;;;;;4939242;28;93800;-33
2022/06/22 03:52:00;;;;;;;15.52;11.02;;;9.90;99.90;;;;;;4939073;28;95434;-38
2022/06/22 03:54:33;;;;;;;13.77;11.00;;;9.90;99.90;;;;;;4938874;28;95514;-35
2022/06/22 03:57:07;;;;;;;10.98;9.93;;;9.90;99.90;;;;;;4938196;28;93269;-33
2022/06/22 03:59:37;;;;;;;15.30;11.75;;;10.00;99.90;;;;;;4939132;28;92235;-35
2022/06/22 04:02:03;;;;;;;13.50;10.73;;;10.00;99.90;;;;;;4938801;28;93492;-33
2022/06/22 04:04:30;;;;;;;11.43;10.23;;;10.10;99.90;;;;;;4937233;28;94317;-36
2022/06/22 04:06:56;;;;;;;9.45;8.45;;;10.20;99.90;;;;;;4937862;28;92173;-35
2022/06/22 04:09:24;;;;;;;8.27;7.47;;;10.20;99.90;;;;;;4939400;28;91456;-34
2022/06/22 04:11:52;;;;;;;8.70;7.93;;;10.20;99.90;;;;;;4937742;28;94167;-34
2022/06/22 04:14:30;;;;;;;;;;;10.30;99.90;;;;;;4938548;28;94729;-36
2022/06/22 04:17:01;;;;;;;8.93;8.00;;;10.30;99.90;;;;;;4939142;28;94739;-35
2022/06/22 04:19:30;;;;;;;10.25;9.35;;;10.30;99.90;;;;;;4939192;28;94790;-36
2022/06/22 04:22:08;;;;;;;8.50;7.70;;;10.40;99.90;;;;;;4937901;28;94564;-32
2022/06/22 04:24:40;;;;;;;;;;;10.40;99.90;;;;;;4938450;28;95758;-39
2022/06/22 04:27:33;;;;;;;9.73;8.80;;;10.50;99.90;;;;;;4940172;28;95102;-33
2022/06/22 04:30:14;;;;;;;10.50;9.48;;;10.60;99.90;;;;;;4938430;28;93117;-39
2022/06/22 04:32:54;;;;;;;11.05;9.95;;;10.60;99.90;;;;;;4938011;28;94501;-37
2022/06/22 04:35:47;;;;;;;10.75;9.68;;;10.80;99.90;;;;;;4937907;28;94533;-33
2022/06/22 04:38:40;;;;;;;12.23;11.07;;;10.90;99.90;;;;;;4938844;28;92240;-35
2022/06/22 04:41:30;;;;;;;12.25;11.15;;;11.00;99.90;;;;;;4937204;28;94576;-33
2022/06/22 04:44:17;;;;;;;11.07;9.82;;;11.10;99.90;;;;;;4936983;28;95709;-33
2022/06/22 04:46:46;;;;;;;12.57;11.27;;;11.30;99.90;;;;;;4937672;28;95656;-38
2022/06/22 04:49:22;;;;;;;12.43;10.73;;;11.40;99.90;;;;;;4937498;28;94451;-34
2022/06/22 04:52:12;;;;;;;12.02;10.75;;;11.60;99.90;;;;;;4937760;28;94414;-32
2022/06/22 04:54:41;;;;;;;11.93;10.68;;;11.80;99.90;;;;;;4936492;28;94952;-35
2022/06/22 04:57:19;;;;;;;;;;;12.00;99.90;;;;;;4937259;28;95157;-35
2022/06/22 04:59:46;;;;;;;15.25;12.00;;;12.30;99.90;;;;;;4939105;28;92855;-36
2022/06/22 05:02:13;;;;;;;13.95;10.98;;;12.50;99.90;;;;;;4937932;28;91879;-35
2022/06/22 05:04:44;;;;;;;17.90;12.45;;;12.60;99.90;;;;;;4936441;28;94356;-35
2022/06/22 05:07:39;;;;;;;14.85;11.30;;;12.90;99.90;;;;;;4937866;28;95645;-34
2022/06/22 05:10:08;;;;;;;18.10;12.93;;;13.10;99.90;;;;;;4936176;28;95372;-32
2022/06/22 05:12:49;;;;;;;15.65;12.65;;;13.30;99.90;;;;;;4937113;28;92182;-34
2022/06/22 05:15:20;;;;;;;14.07;12.00;;;13.50;99.90;;;;;;4936875;28;95182;-33
2022/06/22 05:17:46;;;;;;;13.27;11.68;;;13.60;99.90;;;;;;4936965;28;94403;-34
2022/06/22 05:20:16;;;;;;;12.60;11.07;;;13.80;99.90;;;;;;4937154;28;92457;-34
2022/06/22 05:22:41;;;;;;;13.20;11.63;;;13.90;99.90;;;;;;4936796;28;93034;-35
2022/06/22 05:25:12;;;;;;;13.93;11.27;;;13.90;99.90;;;;;;4936974;28;94761;-35
2022/06/22 05:28:00;;;;;;;13.68;12.32;;;14.30;99.90;;;;;;4936982;28;94406;-34
2022/06/22 05:30:32;;;;;;;11.73;10.63;;;14.50;99.90;;;;;;4937410;28;92035;-34
2022/06/22 05:33:05;;;;;;;17.45;12.05;;;14.80;99.90;;;;;;4937573;28;92504;-33
2022/06/22 05:35:37;;;;;;;16.60;12.77;;;15.00;99.90;;;;;;4935834;28;95185;-35
2022/06/22 05:38:07;;;;;;;16.38;11.65;;;15.00;99.90;;;;;;4937039;28;95087;-38
2022/06/22 05:40:35;;;;;;;12.98;11.65;;;15.10;99.90;;;;;;4937455;28;94841;-35
2022/06/22 05:43:01;;;;;;;17.15;11.70;;;15.10;99.90;;;;;;4937287;28;92969;-37
2022/06/22 05:45:29;;;;;;;15.90;12.88;;;15.20;99.90;;;;;;4936001;28;94626;-35
2022/06/22 05:47:56;;;;;;;18.52;13.98;;;15.40;99.90;;;;;;4936118;28;96775;-33
2022/06/22 05:50:34;;;;;;;15.70;14.10;;;15.70;99.90;;;;;;4937078;28;93546;-32
2022/06/22 05:53:08;;;;;;;15.32;13.80;;;15.80;99.90;;;;;;4937739;28;93561;-33
2022/06/22 05:55:49;;;;;;;17.10;12.65;;;15.60;99.90;;;;;;4936227;28;94384;-38
2022/06/22 05:58:28;;;;;;;15.02;13.00;;;15.70;99.90;;;;;;4936547;28;94532;-34
2022/06/22 06:00:56;;;;;;;16.00;13.50;;;15.70;99.90;;;;;;4935528;28;94274;-35
2022/06/22 06:03:51;;;;;;;15.00;13.18;;;15.70;99.90;;;;;;4936278;28;93105;-34
2022/06/22 06:06:26;;;;;;;14.98;13.55;;;15.70;99.90;;;;;;4906865;28;94564;-34
2022/06/22 06:09:07;;;;;;;15.55;13.18;;;15.80;99.90;;;;;;4937822;28;94654;-35
2022/06/22 06:11:52;;;;;;;15.38;13.38;;;15.90;99.90;;;;;;4940659;28;92188;-34
2022/06/22 06:14:26;;;;;;;14.32;12.85;;;15.90;99.90;;;;;;4939530;28;93960;-35
2022/06/22 06:16:56;;;;;;;15.63;11.98;;;16.20;99.90;;;;;;4939573;28;94736;-37
2022/06/22 06:19:25;;;;;;;15.25;12.27;;;16.10;99.90;;;;;;4940159;28;95108;-34
2022/06/22 06:21:56;;;;;;;15.15;13.00;;;16.00;99.90;;;;;;4939736;28;92715;-34
2022/06/22 06:24:27;;;;;;;16.38;11.55;;;16.40;99.90;;;;;;4940745;28;94739;-34
2022/06/22 06:29:58;;;;;;;17.08;13.15;;;17.20;99.90;;;;;;4939190;28;95903;-35
2022/06/22 06:32:34;;;;;;;14.45;11.52;;;17.50;99.90;;;;;;4939731;28;93157;-35
2022/06/22 06:35:22;;;;;;;13.40;12.00;;;17.80;99.90;;;;;;4939535;28;95027;-38
2022/06/22 06:37:54;;;;;;;15.43;11.95;;;17.90;99.90;;;;;;4937388;28;95145;-36
2022/06/22 06:40:34;;;;;;;15.20;11.02;;;18.00;99.90;;;;;;4937688;28;95283;-36
2022/06/22 06:43:30;;;;;;;12.82;11.48;;;18.10;99.90;;;;;;4939021;28;95014;-37
2022/06/22 06:45:58;;;;;;;12.50;11.23;;;18.00;99.90;;;;;;4938999;28;92566;-37
2022/06/22 06:48:26;;;;;;;14.57;10.95;;;18.10;99.90;;;;;;4938960;28;94717;-34
2022/06/22 06:50:56;;;;;;;11.63;9.95;;;18.20;99.90;;;;;;4939128;28;94682;-38
2022/06/22 06:53:30;;;;;;;13.00;10.45;;;18.30;99.90;;;;;;4939750;28;95509;-34
2022/06/22 06:56:20;;;;;;;12.55;9.90;;;18.20;99.90;;;;;;4938752;28;92239;-35
2022/06/22 06:58:57;;;;;;;11.00;9.90;;;18.50;99.90;;;;;;4940304;28;94808;-34
2022/06/22 07:01:29;;;;;;;15.38;10.52;;;18.70;99.90;;;;;;4939146;28;95304;-37
2022/06/22 07:03:58;;;;;;;10.30;9.30;;;18.70;99.90;;;;;;4938099;28;93402;-34
2022/06/22 07:06:26;;;;;;;14.10;10.95;;;18.80;99.90;;;;;;4939851;28;92113;-33
2022/06/22 07:08:57;;;;;;;9.65;8.45;;;19.00;99.90;;;;;;4938360;28;95728;-36
2022/06/22 07:11:54;;;;;;;8.60;7.80;;;18.90;99.90;;;;;;4940001;28;95079;-33
2022/06/22 07:14:33;;;;;;;12.43;7.17;;;19.10;99.90;;;;;;4915658;28;94799;-34
2022/06/22 07:17:05;;;;;;;8.82;6.63;;;19.20;99.90;;;;;;4939707;28;93531;-33
2022/06/22 07:19:39;;;;;;;9.73;6.47;;;19.40;99.90;;;;;;4938028;28;95402;-36
2022/06/22 07:22:26;;;;;;;8.70;6.05;;;19.60;99.90;;;;;;4939167;28;95016;-37
2022/06/22 07:24:57;;;;;;;6.70;5.07;;;19.90;99.90;;;;;;4939138;28;93495;-37
2022/06/22 07:27:33;;;;;;;8.95;7.22;;;19.90;99.90;;;;;;4929412;28;92847;-38
2022/06/22 07:30:09;;;;;;;6.95;6.28;;;19.90;99.90;;;;;;4938463;28;94953;-36
2022/06/22 07:32:50;;;;;;;11.80;8.32;;;19.70;99.90;;;;;;4928137;28;94508;-37
2022/06/22 07:35:19;;;;;;;9.85;6.13;;;20.00;99.90;;;;;;4938262;28;94730;-36
2022/06/22 07:38:04;;;;;;;7.95;7.15;;;20.30;99.90;;;;;;4937242;28;93087;-37
2022/06/22 07:40:31;;;;;;;7.93;6.10;;;20.20;99.90;;;;;;4936439;28;95049;-34
2022/06/22 07:42:59;;;;;;;8.15;7.22;;;20.20;99.90;;;;;;4918820;28;94492;-34
2022/06/22 07:45:27;;;;;;;11.73;7.38;;;20.50;99.90;;;;;;4936821;28;95009;-35
2022/06/22 07:47:58;;;;;;;10.73;7.68;;;20.60;99.90;;;;;;4937180;28;94962;-35
2022/06/22 07:50:26;;;;;;;15.45;6.85;;;20.90;99.90;;;;;;4936902;28;95046;-38
2022/06/22 07:53:30;;;;;;;9.98;6.43;;;20.80;99.90;;;;;;4936875;28;94439;-38
2022/06/22 07:56:31;;;;;;;7.43;6.32;;;20.90;99.90;;;;;;4895182;28;93075;-35
2022/06/22 07:59:15;;;;;;;12.30;7.68;;;20.70;99.90;;;;;;4930289;28;93445;-35
2022/06/22 08:01:43;;;;;;;7.60;6.88;;;20.50;99.90;;;;;;4924698;28;94687;-38
2022/06/22 08:04:14;;;;;;;7.20;5.95;;;20.40;99.90;;;;;;4936372;28;94588;-35
2022/06/22 08:06:52;;;;;;;9.45;6.40;;;20.60;99.90;;;;;;4936632;28;93032;-35
2022/06/22 08:09:52;;;;;;;8.05;5.93;;;20.80;99.90;;;;;;4936697;28;93750;-33
2022/06/22 08:12:28;;;;;;;8.98;6.20;;;21.00;99.90;;;;;;4936737;28;95764;-35
2022/06/22 08:14:54;;;;;;;6.95;5.45;;;21.00;99.90;;;;;;4935931;28;95966;-34
2022/06/22 08:17:53;;;;;;;5.25;4.80;;;21.00;95.00;;;;;;4937432;28;93569;-37
2022/06/22 08:20:41;;;;;;;7.15;5.22;;;21.30;99.90;;;;;;4903497;28;94778;-38
2022/06/22 08:23:10;;;;;;;;;;;21.20;95.20;;;;;;4937624;28;95240;-35
2022/06/22 08:25:36;;;;;;;7.00;4.50;;;21.20;92.40;;;;;;4938118;28;94061;-34
2022/06/22 08:28:03;;;;;;;5.05;4.15;;;21.10;81.10;;;;;;4936584;28;92139;-35
2022/06/22 08:30:30;;;;;;;5.00;4.50;;;21.00;84.70;;;;;;4935138;28;92853;-34
2022/06/22 08:33:06;;;;;;;5.18;3.70;;;21.00;89.50;;;;;;4936583;28;94536;-35
2022/06/22 08:35:58;;;;;;;4.75;4.20;;;21.30;91.00;;;;;;4936530;28;94956;-37
2022/06/22 08:38:45;;;;;;;6.70;4.55;;;21.30;85.80;;;;;;4912188;28;95359;-35
2022/06/22 08:41:33;;;;;;;5.07;4.57;;;21.40;93.50;;;;;;4935700;28;94231;-40
2022/06/22 08:44:09;;;;;;;5.30;3.65;;;21.60;89.20;;;;;;4923051;28;94467;-34
2022/06/22 08:46:52;;;;;;;5.55;4.15;;;21.70;85.50;;;;;;4935709;28;95218;-38
2022/06/22 08:49:18;;;;;;;5.18;4.25;;;21.60;90.10;;;;;;4936946;28;94671;-39
2022/06/22 08:52:07;;;;;;;6.00;4.70;;;21.50;79.50;;;;;;4935906;28;93422;-36
2022/06/22 08:54:54;;;;;;;3.95;3.65;;;21.90;88.60;;;;;;4936295;28;95768;-34
2022/06/22 08:57:45;;;;;;;6.47;3.78;;;22.10;76.10;;;;;;4936712;28;94297;-34
2022/06/22 09:00:44;;;;;;;4.80;3.50;;;22.10;75.80;;;;;;4935927;28;92255;-34
2022/06/22 09:03:40;;;;;;;5.15;2.95;;;22.20;64.90;;;;;;4902816;28;92933;-35
2022/06/22 09:06:16;;;;;;;6.25;3.28;;;22.40;66.80;;;;;;4927843;28;95860;-36
2022/06/22 09:09:02;;;;;;;6.63;3.88;;;22.30;64.00;;;;;;4934671;28;95888;-35
2022/06/22 09:11:37;;;;;;;5.53;3.65;;;22.10;66.00;;;;;;4935827;28;92550;-34
2022/06/22 09:14:24;;;;;;;6.00;3.70;;;22.20;71.60;;;;;;4934723;28;93339;-36
2022/06/22 09:17:24;;;;;;;4.20;3.72;;;22.20;68.20;;;;;;4930159;28;94812;-36
2022/06/22 09:20:17;;;;;;;7.78;3.70;;;22.40;72.00;;;;;;4932820;28;94488;-36
2022/06/22 09:22:58;;;;;;;4.03;3.70;;;22.60;75.00;;;;;;4936088;28;94997;-35
2022/06/22 09:25:27;;;;;;;5.25;3.38;;;22.30;70.00;;;;;;4936056;28;93661;-38
2022/06/22 09:27:58;;;;;;;10.02;3.33;;;22.30;68.40;;;;;;4934994;28;96955;-37
2022/06/22 09:30:51;;;;;;;5.38;4.18;;;22.40;64.90;;;;;;4935956;28;94673;-34
2022/06/22 09:33:54;;;;;;;3.90;3.55;;;22.60;65.50;;;;;;4935268;28;95069;-37
2022/06/22 09:36:39;;;;;;;3.63;2.92;;;22.70;70.60;;;;;;4935962;28;92656;-38
2022/06/22 09:39:28;;;;;;;5.93;3.30;;;22.40;66.10;;;;;;4923977;28;95346;-36
2022/06/22 09:42:16;;;;;;;4.20;3.80;;;22.60;65.80;;;;;;4934194;28;95337;-38
2022/06/22 09:44:54;;;;;;;4.95;4.45;;;22.70;68.00;;;;;;4924337;28;94764;-37
2022/06/22 09:47:34;;;;;;;6.78;3.65;;;22.90;66.90;;;;;;4934318;28;93396;-33
2022/06/22 09:50:26;;;;;;;7.43;3.83;;;22.60;68.30;;;;;;4934959;28;95839;-35
2022/06/22 09:53:10;;;;;;;3.85;3.28;;;22.70;68.90;;;;;;4929852;28;94402;-35
2022/06/22 09:59:18;;;;;;;9.10;3.50;;;22.60;75.30;;;;;;4934906;28;93237;-34
2022/06/22 10:01:50;;;;;;;4.35;3.50;;;22.90;77.80;;;;;;4923584;28;95746;-38
2022/06/22 10:04:21;;;;;;;6.57;3.53;;;22.80;72.00;;;;;;4935101;28;96066;-35
2022/06/22 10:07:07;;;;;;;5.53;3.42;;;22.50;67.60;;;;;;4934403;28;92899;-36
2022/06/22 10:09:58;;;;;;;11.88;4.20;;;22.70;73.00;;;;;;4934874;28;93297;-38
2022/06/22 10:12:39;;;;;;;4.82;4.10;;;22.80;70.10;;;;;;4934790;28;94900;-36
2022/06/22 10:15:27;;;;;;;6.93;3.45;;;22.70;68.10;;;;;;4935622;28;95032;-36
2022/06/22 10:18:03;;;;;;;4.25;3.13;;;22.40;68.30;;;;;;4934512;28;92495;-38
2022/06/22 10:21:13;;;;;;;6.70;3.70;;;22.60;66.70;;;;;;4935166;28;93384;-37
2022/06/22 10:24:07;;;;;;;9.43;3.03;;;22.20;65.40;;;;;;4934784;28;94333;-39
2022/06/22 10:26:42;;;;;;;6.05;2.90;;;22.50;69.20;;;;;;4934927;28;94281;-38
2022/06/22 10:29:07;;;;;;;7.05;3.28;;;23.00;75.60;;;;;;4935151;28;93831;-35
2022/06/22 10:31:59;;;;;;;7.35;3.38;;;22.90;68.30;;;;;;4934837;28;94422;-37
2022/06/22 10:34:46;;;;;;;4.78;3.00;;;22.50;64.20;;;;;;4935024;28;94716;-34
2022/06/22 10:37:34;;;;;;;6.30;3.33;;;22.40;67.80;;;;;;4934799;28;94510;-34
2022/06/22 10:46:22;;;;;;;4.93;3.25;;;23.10;71.00;;;;;;4934326;28;94613;-33
2022/06/22 10:48:57;;;;;;;3.88;2.97;;;23.20;71.50;;;;;;4934955;28;93672;-35
2022/06/22 10:51:43;;;;;;;3.45;3.05;;;23.30;65.00;;;;;;4935114;28;93088;-34
2022/06/22 10:54:34;;;;;;;2.93;2.73;;;22.90;62.20;;;;;;4935731;28;93913;-38
2022/06/22 10:57:23;;;;;;;2.92;2.53;;;22.90;63.50;;;;;;4937029;28;94880;-36
2022/06/22 11:00:09;;;;;;;2.38;2.17;;;22.80;65.50;;;;;;4936906;28;95355;-38
2022/06/22 11:02:59;;;;;;;4.22;2.30;;;23.00;65.70;;;;;;4937669;28;94851;-34
2022/06/22 11:05:43;;;;;;;9.32;3.15;;;22.80;59.70;;;;;;4937664;28;93843;-37
2022/06/22 11:08:33;;;;;;;5.10;3.05;;;22.70;60.60;;;;;;4937056;28;95096;-36
2022/06/22 11:11:17;;;;;;;4.65;2.35;;;22.70;61.10;;;;;;4937060;28;93571;-38
2022/06/22 11:14:11;;;;;;;7.10;3.65;;;22.50;58.60;;;;;;4938227;28;92490;-34
2022/06/22 11:17:15;;;;;;;7.97;3.00;;;22.50;60.30;;;;;;4937761;28;92254;-34
2022/06/22 11:19:55;;;;;;;3.20;2.30;;;22.50;57.90;;;;;;4936043;28;94902;-36
2022/06/22 11:22:30;;;;;;;6.68;2.67;;;22.50;60.00;;;;;;4934893;28;95126;-35
2022/06/22 11:31:09;;;;;;;3.17;1.95;;;22.60;55.70;;;;;;4936745;28;95014;-35
2022/06/22 11:33:55;;;;;;;3.63;2.53;;;22.60;58.40;;;;;;4936338;28;94386;-40
2022/06/22 11:37:08;;;;;;;2.47;2.20;;;22.60;60.10;;;;;;4937262;28;92593;-34
2022/06/22 11:39:39;;;;;;;3.38;2.55;;;22.70;58.40;;;;;;4876198;28;93234;-35
2022/06/22 11:42:20;;;;;;;3.15;2.28;;;22.60;59.00;;;;;;4930803;28;94407;-35
2022/06/22 11:48:18;;;;;;;3.30;2.28;;;22.70;60.00;;;;;;4936230;28;93219;-39
2022/06/22 11:51:31;;;;;;;6.05;3.60;;;22.90;62.30;;;;;;4935756;28;93805;-37
2022/06/22 11:54:29;;;;;;;2.97;2.78;;;22.90;63.40;;;;;;4934248;28;95750;-35
2022/06/22 11:57:02;;;;;;;3.13;2.60;;;22.60;60.90;;;;;;4935486;28;95758;-35
2022/06/22 11:59:55;;;;;;;6.43;2.70;;;22.80;62.40;;;;;;4936171;28;93031;-32
2022/06/22 12:02:55;;;;;;;3.30;2.15;;;22.80;61.70;;;;;;4936211;28;94256;-36
2022/06/22 12:06:08;;;;;;;2.88;2.08;;;23.00;61.70;;;;;;4935951;28;94468;-35
2022/06/22 12:08:43;;;;;;;5.57;2.92;;;23.00;64.50;;;;;;4911957;28;94898;-35
2022/06/22 12:11:18;;;;;;;5.45;2.20;;;23.10;60.20;;;;;;4938815;28;93125;-37
2022/06/22 12:17:40;;;;;;;4.60;2.95;;;22.90;62.60;;;;;;4940467;28;93895;-37
2022/06/22 12:20:09;;;;;;;4.38;3.15;;;22.70;61.00;;;;;;4906875;28;94449;-34
2022/06/22 12:23:03;;;;;;;7.22;3.00;;;22.90;63.60;;;;;;4935434;28;95418;-37
2022/06/22 12:25:29;;;;;;;4.60;2.28;;;23.10;65.10;;;;;;4935818;28;93269;-37
2022/06/22 12:28:19;;;;;;;4.95;3.10;;;23.00;61.40;;;;;;4935379;28;95127;-35
2022/06/22 12:30:54;;;;;;;5.35;2.75;;;22.80;62.70;;;;;;4935938;28;94374;-34
2022/06/22 12:33:42;;;;;;;7.97;2.40;;;22.90;59.30;;;;;;4936332;28;94517;-34
2022/06/22 12:36:21;;;;;;;4.70;3.40;;;23.00;60.70;;;;;;4936310;28;94914;-34
2022/06/22 12:38:51;;;;;;;2.72;2.53;;;23.00;60.50;;;;;;4934940;28;94711;-37
2022/06/22 12:41:31;;;;;;;2.25;2.05;;;23.00;61.40;;;;;;4936254;28;96107;-35
2022/06/22 12:44:16;;;;;;;3.08;2.78;;;23.30;58.80;;;;;;4936170;28;92191;-38
2022/06/22 12:46:50;;;;;;;1.73;1.63;;;23.20;54.50;;;;;;4934903;28;94506;-38
2022/06/22 12:49:24;;;;;;;2.70;2.50;;;23.20;54.80;;;;;;4935563;28;95786;-36
2022/06/22 12:52:07;;;;;;;4.72;2.95;;;22.90;56.70;;;;;;4934439;28;95434;-37
2022/06/22 12:54:42;;;;;;;5.07;2.63;;;22.90;58.50;;;;;;4936648;28;93256;-36
2022/06/22 12:57:07;;;;;;;2.60;2.22;;;22.80;57.40;;;;;;4935337;28;92264;-35
2022/06/22 12:59:46;;;;;;;6.53;3.45;;;22.70;57.50;;;;;;4935622;28;94639;-38
2022/06/22 13:02:16;;;;;;;5.03;3.53;;;22.70;62.60;;;;;;4935768;28;94857;-34
2022/06/22 13:04:44;;;;;;;2.83;2.58;;;22.70;66.60;;;;;;4977338;22;93000;-36
2022/06/22 13:07:16;;;;;;;3.20;2.72;;;23.00;66.50;;;;;;4955815;28;93895;-33
2022/06/22 13:09:44;;;;;;;6.47;3.20;;;22.90;65.50;;;;;;4954765;28;95480;-35
2022/06/22 13:12:37;;;;;;;4.13;3.47;;;22.90;66.30;;;;;;4955293;28;94711;-36
2022/06/22 13:15:17;;;;;;;6.10;3.20;;;23.10;65.20;;;;;;4949942;28;93496;-35
2022/06/22 13:18:06;;;;;;;5.88;3.42;;;23.10;63.10;;;;;;4954215;28;92526;-36
2022/06/22 13:20:56;;;;;;;4.00;2.90;;;23.10;63.50;;;;;;4954034;28;94727;-34
2022/06/22 13:23:44;;;;;;;5.22;2.97;;;23.00;63.80;;;;;;4954211;28;94650;-35
2022/06/22 13:26:35;;;;;;;5.15;3.13;;;22.90;62.90;;;;;;4956032;28;94253;-34
2022/06/22 13:29:14;;;;;;;5.80;3.80;;;23.00;64.70;;;;;;4955364;28;94091;-35
2022/06/22 13:31:44;;;;;;;7.30;3.97;;;23.10;64.10;;;;;;4954140;28;95060;-36
2022/06/22 13:34:19;;;;;;;10.13;3.10;;;23.00;64.70;;;;;;4953813;28;94153;-35
2022/06/22 13:36:51;;;;;;;3.78;2.65;;;23.00;61.50;;;;;;4954551;28;92121;-36
2022/06/22 13:39:30;;;;;;;6.32;3.03;;;22.90;63.40;;;;;;4955279;28;93736;-34
2022/06/22 13:42:29;;;;;;;4.90;3.05;;;23.10;62.80;;;;;;4954175;28;95699;-38
2022/06/22 13:45:16;;;;;;;4.03;3.03;;;23.20;62.00;;;;;;4953962;28;95715;-34
2022/06/22 13:47:59;;;;;;;12.07;3.03;;;23.00;59.70;;;;;;4955319;28;94477;-36
2022/06/22 13:50:54;;;;;;;3.42;3.13;;;23.00;59.90;;;;;;4954606;28;92847;-37
2022/06/22 13:53:41;;;;;;;3.13;2.78;;;23.10;59.60;;;;;;4954223;28;93958;-37
2022/06/22 13:56:43;;;;;;;4.00;3.15;;;22.90;59.70;;;;;;4954558;28;94776;-35
2022/06/22 13:59:17;;;;;;;5.43;2.95;;;23.00;61.20;;;;;;4953976;28;93056;-36
2022/06/22 14:01:49;;;;;;;5.30;2.83;;;23.00;58.50;;;;;;4954465;28;93110;-35
2022/06/22 14:04:32;;;;;;;3.50;2.25;;;23.00;60.70;;;;;;4954317;28;94712;-35
2022/06/22 14:07:15;;;;;;;5.15;2.80;;;23.00;58.70;;;;;;4953000;28;95096;-34
2022/06/22 14:09:51;;;;;;;2.72;2.50;;;23.10;60.00;;;;;;4952602;28;94024;-38